SAVV/VDM METAR and TAF weather

Enter ICAO airport designator
Station Type Date Time Source
SAVV METAR 2019/11/15 20:20 UTC NOAA

SAVV 152020Z 27016KT 9999 FEW040 FEW045CB BKN100 25/14 Q1000 RETSRA


Station Type Date Time Source
SAVV Decoded METAR 2019/11/15 20:20 UTC NOAA

Viedma Aerodrome, Argentina (SAVV) 40-51S 063-01W 7M
Nov 15, 2019 - 03:20 PM EST / 2019.11.15 2020 UTC
Wind: from the W (270 degrees) at 18 MPH (16 KT):0
Visibility: greater than 7 mile(s):0
Sky conditions: mostly cloudy
Weather: Cumulonimbus clouds observed
Temperature: 77 F (25 C)
Dew Point: 57 F (14 C)
Relative Humidity: 50%
Pressure (altimeter): 29.53 in. Hg (1000 hPa)
ob: SAVV 152020Z 27016KT 9999 FEW040 FEW045CB BKN100 25/14 Q1000 RETSRA
cycle: 20

Station Type Date Time Source
SAVV TAF 2019/04/29 06:24 UTC NOAA

TAF TAF SAVV 290500Z 2906/3006 29015KT CAVOK TX18/2919Z TN07/3006Z
BECMG 2908/3010 25010KT
TEMPO 2914/2921 25020G30KT

Example: see airport list